createdAt,value
2019-05-28T13:47:46.211Z,31.68
2019-05-28T13:50:17.269Z,31.22
2019-05-28T13:52:48.069Z,30.83
2019-05-28T13:55:19.466Z,30.01
2019-05-28T13:57:50.015Z,30.49
2019-05-28T14:00:22.332Z,30.66
2019-05-28T14:02:52.798Z,30.94
2019-05-28T14:05:23.391Z,31.03
2019-05-28T14:07:54.103Z,30.50
2019-05-28T14:10:24.846Z,30.48
2019-05-28T14:12:55.530Z,30.73
2019-05-28T14:15:26.217Z,29.97
2019-05-28T14:17:56.734Z,29.57
2019-05-28T14:20:27.415Z,30.09
2019-05-28T14:22:57.916Z,29.71
2019-05-28T14:25:28.423Z,29.90
2019-05-28T14:27:58.943Z,30.45
2019-05-28T14:30:29.667Z,30.96
2019-05-28T14:33:00.148Z,31.17
2019-05-28T14:35:30.703Z,31.38
2019-05-28T14:38:01.201Z,30.64
2019-05-28T14:40:32.624Z,30.24
2019-05-28T14:43:03.469Z,29.38
2019-05-28T14:45:34.156Z,30.05
2019-05-28T14:48:04.833Z,30.42
2019-05-28T14:50:35.349Z,30.42
2019-05-28T14:53:05.962Z,30.16
2019-05-28T14:55:36.570Z,28.37
2019-05-28T14:58:07.191Z,28.45
2019-05-28T15:00:37.793Z,28.38
2019-05-28T15:03:08.313Z,28.66
2019-05-28T15:05:38.771Z,28.96
2019-05-28T15:08:09.243Z,28.90
2019-05-28T15:10:39.744Z,29.20
2019-05-28T15:13:10.319Z,27.47
2019-05-28T15:15:40.750Z,27.48
2019-05-28T15:18:11.210Z,27.21
2019-05-28T15:20:41.711Z,27.79
2019-05-28T15:23:12.205Z,28.66
2019-05-28T15:25:42.661Z,28.76
2019-05-28T15:28:13.209Z,28.34
2019-05-28T15:30:43.710Z,28.14
2019-05-28T15:33:14.260Z,28.38
2019-05-28T15:35:44.793Z,28.94
2019-05-28T15:38:15.348Z,29.05
2019-05-28T15:40:45.878Z,29.12
2019-05-28T15:43:16.343Z,28.58
2019-05-28T15:45:46.894Z,28.11
2019-05-28T15:48:17.357Z,28.07
2019-05-28T15:50:47.974Z,28.85
2019-05-28T15:53:18.406Z,28.88
2019-05-28T15:55:48.923Z,28.94
2019-05-28T15:58:19.392Z,28.77
2019-05-28T16:00:49.904Z,28.72
2019-05-28T16:03:20.425Z,28.85
2019-05-28T16:05:50.985Z,28.47
2019-05-28T16:08:21.485Z,28.61
2019-05-28T16:10:51.980Z,28.19
2019-05-28T16:13:22.503Z,28.42
2019-05-28T16:15:53.004Z,28.42
2019-05-28T16:18:23.453Z,28.45
2019-05-28T16:20:53.972Z,28.44
2019-05-28T16:23:24.435Z,28.21
2019-05-28T16:25:54.974Z,27.89
2019-05-28T16:28:25.448Z,27.88
2019-05-28T16:31:11.144Z,28.39
2019-05-28T16:33:28.227Z,28.31
2019-05-28T16:35:58.726Z,28.45
2019-05-28T16:38:29.204Z,28.43
2019-05-28T16:40:59.716Z,27.97
2019-05-28T16:43:30.284Z,27.58
2019-05-28T16:46:00.772Z,28.11
2019-05-28T16:48:31.232Z,27.92
2019-05-28T16:51:01.742Z,27.28
2019-05-28T16:53:32.194Z,27.86
2019-05-28T16:56:02.708Z,27.18
2019-05-28T16:58:33.145Z,27.19
2019-05-28T17:01:21.327Z,27.44
2019-05-28T17:03:35.886Z,28.13
2019-05-28T17:06:06.348Z,25.90
2019-05-28T17:08:36.852Z,26.07
2019-05-28T17:11:07.489Z,25.90
2019-05-28T17:13:38.007Z,26.10
2019-05-28T17:16:08.497Z,25.92
2019-05-28T17:18:39.004Z,26.14
2019-05-28T17:21:09.594Z,26.50
2019-05-28T17:23:40.112Z,26.57
2019-05-28T17:26:10.668Z,26.82
2019-05-28T17:28:41.164Z,27.09
2019-05-28T17:31:11.694Z,27.09
2019-05-28T17:33:42.211Z,27.85
2019-05-28T17:36:12.677Z,27.85
2019-05-28T17:38:43.700Z,27.97
2019-05-28T17:41:14.161Z,27.97
2019-05-28T17:43:44.664Z,28.18
2019-05-28T17:46:15.168Z,28.23
2019-05-28T17:48:45.836Z,28.42
2019-05-28T17:51:16.290Z,28.58
2019-05-28T17:53:46.832Z,28.79
2019-05-28T17:56:17.294Z,28.76
2019-05-28T17:58:47.848Z,28.96
2019-05-28T18:01:18.301Z,29.18
2019-05-28T18:03:48.771Z,29.17
2019-05-28T18:06:19.244Z,29.46
2019-05-28T18:08:49.749Z,29.70
2019-05-28T18:11:20.223Z,29.69
2019-05-28T18:13:50.733Z,29.98
2019-05-28T18:16:21.210Z,30.54
2019-05-28T18:18:51.712Z,30.70
2019-05-28T18:21:22.168Z,30.49
2019-05-28T18:23:52.676Z,30.75
2019-05-28T18:26:23.121Z,30.78
2019-05-28T18:28:53.628Z,31.10
2019-05-28T18:31:24.135Z,31.21
2019-05-28T18:33:54.641Z,31.24
2019-05-28T18:36:25.164Z,31.52
2019-05-28T18:38:55.625Z,31.66
2019-05-28T18:41:26.124Z,31.71
2019-05-28T18:43:56.638Z,32.10
2019-05-28T18:46:27.133Z,32.14
2019-05-28T18:48:57.596Z,32.12
2019-05-28T18:51:28.119Z,32.08
2019-05-28T18:53:58.678Z,32.21
2019-05-28T18:56:29.292Z,32.55
2019-05-28T18:58:59.801Z,32.56
2019-05-28T19:01:30.307Z,32.60
2019-05-28T19:04:00.843Z,32.67
2019-05-28T19:06:31.303Z,32.93
2019-05-28T19:09:01.824Z,33.00
2019-05-28T19:11:37.971Z,33.01
2019-05-28T19:14:04.544Z,33.02
2019-05-28T19:16:35.184Z,33.05
2019-05-28T19:19:05.704Z,33.18
2019-05-28T19:21:36.329Z,33.24
2019-05-28T19:24:06.882Z,33.26
2019-05-28T19:26:37.436Z,33.32
2019-05-28T19:29:07.946Z,33.48
2019-05-28T19:31:38.660Z,33.51
2019-05-28T19:34:09.418Z,33.37
2019-05-28T19:36:40.167Z,32.88
2019-05-28T19:39:10.663Z,32.94
2019-05-28T19:41:53.609Z,33.50
2019-05-28T19:44:13.378Z,33.67
2019-05-28T19:46:43.951Z,34.34
2019-05-28T19:49:14.406Z,34.76
2019-05-28T19:51:44.915Z,35.60
2019-05-28T19:54:15.441Z,35.04
2019-05-28T19:56:45.893Z,35.40
2019-05-28T19:59:16.404Z,35.47
2019-05-28T20:01:46.856Z,35.63
2019-05-28T20:04:17.390Z,36.34
2019-05-28T20:06:47.838Z,36.34
2019-05-28T20:09:18.335Z,36.39
2019-05-28T20:11:48.847Z,36.55
2019-05-28T20:14:19.311Z,36.68
2019-05-28T20:16:49.852Z,36.83
2019-05-28T20:19:20.320Z,36.55
2019-05-28T20:21:53.454Z,36.75
2019-05-28T20:24:23.094Z,37.09
2019-05-28T20:26:53.945Z,37.34
2019-05-28T20:29:24.462Z,37.15
2019-05-28T20:31:55.004Z,37.20
2019-05-28T20:34:25.578Z,37.11
2019-05-28T20:36:56.043Z,37.41
2019-05-28T20:39:26.505Z,37.45
2019-05-28T20:41:57.004Z,37.74
2019-05-28T20:44:27.452Z,38.19
2019-05-28T20:46:58.004Z,38.75
2019-05-28T20:49:28.508Z,38.66
2019-05-28T20:51:59.008Z,39.26
2019-05-28T20:54:29.524Z,39.47
2019-05-28T20:56:59.992Z,39.90
2019-05-28T20:59:30.464Z,40.15
2019-05-28T21:02:00.982Z,40.45
2019-05-28T21:04:31.512Z,40.28
2019-05-28T21:07:01.962Z,40.46
2019-05-28T21:09:32.442Z,40.85
2019-05-28T21:12:02.932Z,41.81
2019-05-28T21:14:33.370Z,42.06
2019-05-28T21:17:03.971Z,41.69
2019-05-28T21:19:34.421Z,41.47
2019-05-28T21:22:04.919Z,41.73
2019-05-28T21:24:35.394Z,41.74
2019-05-28T21:27:05.935Z,41.72
2019-05-28T21:29:36.484Z,42.25
2019-05-28T21:32:06.926Z,42.48
2019-05-28T21:34:37.377Z,42.48
2019-05-28T21:37:07.884Z,42.44
2019-05-28T21:39:38.323Z,42.84
2019-05-28T21:42:08.838Z,43.18
2019-05-28T21:44:39.303Z,43.70
2019-05-28T21:47:09.881Z,43.84
2019-05-28T21:49:40.344Z,43.63
2019-05-28T21:52:10.953Z,43.53
2019-05-28T21:54:41.423Z,43.92
2019-05-28T21:57:11.877Z,44.18
2019-05-28T21:59:42.327Z,44.33
2019-05-28T22:02:13.717Z,44.95
2019-05-28T22:04:44.222Z,45.02
2019-05-28T22:07:14.680Z,44.84
2019-05-28T22:09:45.210Z,45.10
2019-05-28T22:12:15.646Z,45.28
2019-05-28T22:14:46.106Z,45.64
2019-05-28T22:17:16.588Z,45.63
2019-05-28T22:19:47.039Z,45.88
2019-05-28T22:22:17.571Z,46.11
2019-05-28T22:24:48.092Z,46.22
2019-05-28T22:27:18.553Z,46.17
2019-05-28T22:29:49.056Z,46.98
2019-05-28T22:32:19.571Z,46.70
2019-05-28T22:34:50.036Z,47.19
2019-05-28T22:37:20.533Z,47.22
2019-05-28T22:39:51.002Z,47.46
2019-05-28T22:42:21.491Z,47.31
2019-05-28T22:44:51.940Z,47.09
2019-05-28T22:47:22.516Z,48.31
2019-05-28T22:49:52.962Z,47.84
2019-05-28T22:52:23.454Z,47.36
2019-05-28T22:54:53.912Z,47.50
2019-05-28T22:57:24.464Z,47.35
2019-05-28T22:59:54.921Z,47.42
2019-05-28T23:02:25.416Z,47.68
2019-05-28T23:04:55.865Z,47.65
2019-05-28T23:07:26.352Z,47.79
2019-05-28T23:09:56.798Z,47.99
2019-05-28T23:12:27.322Z,47.99
2019-05-28T23:14:57.781Z,48.85
2019-05-28T23:17:28.290Z,49.71
2019-05-28T23:19:58.754Z,48.94
2019-05-28T23:22:29.199Z,48.83
2019-05-28T23:24:59.661Z,48.78
2019-05-28T23:27:30.157Z,48.79
2019-05-28T23:30:06.752Z,48.72
2019-05-28T23:32:32.819Z,48.79
2019-05-28T23:35:04.302Z,48.77
2019-05-28T23:37:34.892Z,49.00
2019-05-28T23:40:07.044Z,48.67
2019-05-28T23:42:37.687Z,49.31
2019-05-28T23:45:09.764Z,48.82
2019-05-28T23:47:40.446Z,49.76
2019-05-28T23:50:14.790Z,49.32
2019-05-28T23:52:43.407Z,50.70
2019-05-28T23:55:14.157Z,50.71
2019-05-28T23:57:44.739Z,50.95
